sensor_id;sensor_type;location;lat;lon;timestamp;P1;durP1;ratioP1;P2;durP2;ratioP2
61505;SDS011;47366;51.916;4.574;2022-09-09T00:00:40;2.45;;;1.42;;
61505;SDS011;47366;51.916;4.574;2022-09-09T00:03:19;4.07;;;1.40;;
61505;SDS011;47366;51.916;4.574;2022-09-09T00:06:14;2.53;;;1.40;;
61505;SDS011;47366;51.916;4.574;2022-09-09T00:09:26;3.85;;;1.52;;
61505;SDS011;47366;51.916;4.574;2022-09-09T00:11:41;3.28;;;1.35;;
61505;SDS011;47366;51.916;4.574;2022-09-09T00:14:24;2.35;;;1.45;;
61505;SDS011;47366;51.916;4.574;2022-09-09T00:17:01;2.10;;;1.23;;
61505;SDS011;47366;51.916;4.574;2022-09-09T00:19:38;5.10;;;1.92;;
61505;SDS011;47366;51.916;4.574;2022-09-09T00:22:18;4.82;;;1.77;;
61505;SDS011;47366;51.916;4.574;2022-09-09T00:24:52;3.33;;;1.70;;
61505;SDS011;47366;51.916;4.574;2022-09-09T00:27:26;4.03;;;2.00;;
61505;SDS011;47366;51.916;4.574;2022-09-09T00:30:12;5.55;;;2.50;;
61505;SDS011;47366;51.916;4.574;2022-09-09T00:32:48;4.80;;;2.60;;
61505;SDS011;47366;51.916;4.574;2022-09-09T00:35:21;4.65;;;2.08;;
61505;SDS011;47366;51.916;4.574;2022-09-09T00:43:38;3.83;;;1.77;;
61505;SDS011;47366;51.916;4.574;2022-09-09T00:57:50;4.03;;;1.83;;
61505;SDS011;47366;51.916;4.574;2022-09-09T00:59:52;2.10;;;1.23;;
61505;SDS011;47366;51.916;4.574;2022-09-09T01:05:25;2.00;;;1.33;;
61505;SDS011;47366;51.916;4.574;2022-09-09T01:07:54;2.83;;;1.55;;
61505;SDS011;47366;51.916;4.574;2022-09-09T01:13:32;2.78;;;1.45;;
61505;SDS011;47366;51.916;4.574;2022-09-09T01:16:00;2.15;;;1.30;;
61505;SDS011;47366;51.916;4.574;2022-09-09T01:18:43;2.67;;;1.42;;
61505;SDS011;47366;51.916;4.574;2022-09-09T01:24:31;2.65;;;1.05;;
61505;SDS011;47366;51.916;4.574;2022-09-09T01:27:01;2.05;;;1.38;;
61505;SDS011;47366;51.916;4.574;2022-09-09T01:29:29;6.05;;;1.25;;
61505;SDS011;47366;51.916;4.574;2022-09-09T01:31:55;4.15;;;1.27;;
61505;SDS011;47366;51.916;4.574;2022-09-09T01:34:36;2.80;;;1.40;;
61505;SDS011;47366;51.916;4.574;2022-09-09T01:39:36;1.55;;;0.77;;
61505;SDS011;47366;51.916;4.574;2022-09-09T01:42:04;5.75;;;1.55;;
61505;SDS011;47366;51.916;4.574;2022-09-09T01:44:32;2.67;;;1.20;;
61505;SDS011;47366;51.916;4.574;2022-09-09T01:47:00;2.22;;;1.30;;
61505;SDS011;47366;51.916;4.574;2022-09-09T01:49:25;3.35;;;1.40;;
61505;SDS011;47366;51.916;4.574;2022-09-09T01:51:52;3.72;;;1.33;;
61505;SDS011;47366;51.916;4.574;2022-09-09T01:54:20;3.72;;;1.50;;
61505;SDS011;47366;51.916;4.574;2022-09-09T01:59:48;4.45;;;1.10;;
61505;SDS011;47366;51.916;4.574;2022-09-09T02:02:48;3.65;;;1.27;;
61505;SDS011;47366;51.916;4.574;2022-09-09T02:08:08;1.73;;;1.00;;
61505;SDS011;47366;51.916;4.574;2022-09-09T02:13:09;1.83;;;1.10;;
61505;SDS011;47366;51.916;4.574;2022-09-09T02:18:25;5.78;;;1.67;;
61505;SDS011;47366;51.916;4.574;2022-09-09T02:20:54;2.67;;;1.20;;
61505;SDS011;47366;51.916;4.574;2022-09-09T02:23:21;1.75;;;1.05;;
61505;SDS011;47366;51.916;4.574;2022-09-09T02:25:46;2.05;;;1.33;;
61505;SDS011;47366;51.916;4.574;2022-09-09T02:28:14;3.50;;;1.25;;
61505;SDS011;47366;51.916;4.574;2022-09-09T02:30:41;5.22;;;1.70;;
61505;SDS011;47366;51.916;4.574;2022-09-09T02:33:10;3.85;;;1.55;;
61505;SDS011;47366;51.916;4.574;2022-09-09T02:35:39;5.07;;;1.13;;
61505;SDS011;47366;51.916;4.574;2022-09-09T02:38:08;2.20;;;1.38;;
61505;SDS011;47366;51.916;4.574;2022-09-09T02:40:37;5.60;;;1.73;;
61505;SDS011;47366;51.916;4.574;2022-09-09T02:43:03;3.22;;;1.27;;
61505;SDS011;47366;51.916;4.574;2022-09-09T02:45:34;1.67;;;1.13;;
61505;SDS011;47366;51.916;4.574;2022-09-09T02:50:56;2.53;;;1.40;;
61505;SDS011;47366;51.916;4.574;2022-09-09T02:53:29;2.63;;;1.38;;
61505;SDS011;47366;51.916;4.574;2022-09-09T02:56:20;4.65;;;1.23;;
61505;SDS011;47366;51.916;4.574;2022-09-09T02:58:50;3.13;;;1.45;;
61505;SDS011;47366;51.916;4.574;2022-09-09T03:01:17;4.78;;;1.98;;
61505;SDS011;47366;51.916;4.574;2022-09-09T03:03:42;1.88;;;1.15;;
61505;SDS011;47366;51.916;4.574;2022-09-09T03:06:09;3.78;;;1.50;;
61505;SDS011;47366;51.916;4.574;2022-09-09T03:08:36;4.45;;;1.20;;
61505;SDS011;47366;51.916;4.574;2022-09-09T03:11:02;1.05;;;0.73;;
61505;SDS011;47366;51.916;4.574;2022-09-09T03:13:27;1.30;;;0.75;;
61505;SDS011;47366;51.916;4.574;2022-09-09T03:15:53;3.30;;;1.15;;
61505;SDS011;47366;51.916;4.574;2022-09-09T03:18:18;2.58;;;1.02;;
61505;SDS011;47366;51.916;4.574;2022-09-09T03:20:44;2.58;;;0.98;;
61505;SDS011;47366;51.916;4.574;2022-09-09T03:23:13;3.15;;;1.00;;
61505;SDS011;47366;51.916;4.574;2022-09-09T03:25:39;4.38;;;1.50;;
61505;SDS011;47366;51.916;4.574;2022-09-09T03:28:04;5.28;;;1.02;;
61505;SDS011;47366;51.916;4.574;2022-09-09T03:30:30;3.50;;;1.08;;
61505;SDS011;47366;51.916;4.574;2022-09-09T03:32:55;3.38;;;0.77;;
61505;SDS011;47366;51.916;4.574;2022-09-09T03:35:20;6.88;;;1.45;;
61505;SDS011;47366;51.916;4.574;2022-09-09T03:37:46;5.57;;;0.88;;
61505;SDS011;47366;51.916;4.574;2022-09-09T03:40:11;2.33;;;1.30;;
61505;SDS011;47366;51.916;4.574;2022-09-09T03:42:37;1.23;;;0.82;;
61505;SDS011;47366;51.916;4.574;2022-09-09T03:45:06;2.33;;;1.15;;
61505;SDS011;47366;51.916;4.574;2022-09-09T03:47:34;4.63;;;1.23;;
61505;SDS011;47366;51.916;4.574;2022-09-09T03:49:59;7.00;;;1.15;;
61505;SDS011;47366;51.916;4.574;2022-09-09T03:52:25;2.47;;;0.77;;
61505;SDS011;47366;51.916;4.574;2022-09-09T03:54:51;2.13;;;0.95;;
61505;SDS011;47366;51.916;4.574;2022-09-09T03:57:17;1.42;;;0.80;;
61505;SDS011;47366;51.916;4.574;2022-09-09T03:59:43;3.08;;;1.02;;
61505;SDS011;47366;51.916;4.574;2022-09-09T04:02:08;1.33;;;0.65;;
61505;SDS011;47366;51.916;4.574;2022-09-09T04:04:34;2.15;;;1.00;;
61505;SDS011;47366;51.916;4.574;2022-09-09T04:07:00;1.65;;;0.85;;
61505;SDS011;47366;51.916;4.574;2022-09-09T04:09:31;2.00;;;1.20;;
61505;SDS011;47366;51.916;4.574;2022-09-09T04:11:56;4.13;;;1.03;;
61505;SDS011;47366;51.916;4.574;2022-09-09T04:14:22;2.50;;;0.70;;
61505;SDS011;47366;51.916;4.574;2022-09-09T04:16:47;1.42;;;0.73;;
61505;SDS011;47366;51.916;4.574;2022-09-09T04:19:13;2.28;;;1.02;;
61505;SDS011;47366;51.916;4.574;2022-09-09T04:21:39;2.95;;;0.98;;
61505;SDS011;47366;51.916;4.574;2022-09-09T04:24:06;2.53;;;1.17;;
61505;SDS011;47366;51.916;4.574;2022-09-09T04:26:33;1.38;;;0.80;;
61505;SDS011;47366;51.916;4.574;2022-09-09T04:28:59;2.55;;;0.85;;
61505;SDS011;47366;51.916;4.574;2022-09-09T04:31:24;2.55;;;1.02;;
61505;SDS011;47366;51.916;4.574;2022-09-09T04:33:50;1.60;;;0.82;;
61505;SDS011;47366;51.916;4.574;2022-09-09T04:36:16;2.42;;;0.75;;
61505;SDS011;47366;51.916;4.574;2022-09-09T04:38:43;2.65;;;1.02;;
61505;SDS011;47366;51.916;4.574;2022-09-09T04:41:09;1.20;;;0.68;;
61505;SDS011;47366;51.916;4.574;2022-09-09T04:43:36;1.40;;;0.70;;
61505;SDS011;47366;51.916;4.574;2022-09-09T04:46:02;4.45;;;1.00;;
61505;SDS011;47366;51.916;4.574;2022-09-09T04:48:27;4.07;;;1.35;;
61505;SDS011;47366;51.916;4.574;2022-09-09T04:50:53;3.03;;;0.95;;
61505;SDS011;47366;51.916;4.574;2022-09-09T04:53:22;3.80;;;0.90;;
61505;SDS011;47366;51.916;4.574;2022-09-09T04:55:48;3.42;;;1.15;;
61505;SDS011;47366;51.916;4.574;2022-09-09T04:58:14;1.40;;;0.75;;
61505;SDS011;47366;51.916;4.574;2022-09-09T05:00:40;2.65;;;1.13;;
61505;SDS011;47366;51.916;4.574;2022-09-09T05:03:05;2.90;;;1.33;;
61505;SDS011;47366;51.916;4.574;2022-09-09T05:05:32;2.22;;;1.08;;
61505;SDS011;47366;51.916;4.574;2022-09-09T05:08:01;3.60;;;1.33;;
61505;SDS011;47366;51.916;4.574;2022-09-09T05:10:27;2.30;;;0.98;;
61505;SDS011;47366;51.916;4.574;2022-09-09T05:12:53;2.53;;;1.30;;
61505;SDS011;47366;51.916;4.574;2022-09-09T05:15:19;2.83;;;1.45;;
61505;SDS011;47366;51.916;4.574;2022-09-09T05:17:45;1.83;;;1.17;;
61505;SDS011;47366;51.916;4.574;2022-09-09T05:20:11;2.83;;;1.25;;
61505;SDS011;47366;51.916;4.574;2022-09-09T05:22:37;7.93;;;1.30;;
61505;SDS011;47366;51.916;4.574;2022-09-09T05:25:02;4.63;;;1.55;;
61505;SDS011;47366;51.916;4.574;2022-09-09T05:27:28;2.78;;;1.33;;
61505;SDS011;47366;51.916;4.574;2022-09-09T05:29:56;1.50;;;0.98;;
61505;SDS011;47366;51.916;4.574;2022-09-09T05:32:23;2.97;;;1.23;;
61505;SDS011;47366;51.916;4.574;2022-09-09T05:35:07;1.67;;;1.02;;
61505;SDS011;47366;51.916;4.574;2022-09-09T05:37:32;2.55;;;0.90;;
61505;SDS011;47366;51.916;4.574;2022-09-09T05:39:57;5.80;;;1.85;;
61505;SDS011;47366;51.916;4.574;2022-09-09T05:42:23;1.92;;;1.17;;
61505;SDS011;47366;51.916;4.574;2022-09-09T05:44:49;2.50;;;1.58;;
61505;SDS011;47366;51.916;4.574;2022-09-09T05:47:15;6.20;;;1.20;;
61505;SDS011;47366;51.916;4.574;2022-09-09T05:49:42;2.15;;;0.80;;
61505;SDS011;47366;51.916;4.574;2022-09-09T05:52:07;4.03;;;1.20;;
61505;SDS011;47366;51.916;4.574;2022-09-09T05:54:34;6.68;;;1.13;;
61505;SDS011;47366;51.916;4.574;2022-09-09T05:57:00;3.70;;;1.52;;
61505;SDS011;47366;51.916;4.574;2022-09-09T05:59:25;2.03;;;0.95;;
61505;SDS011;47366;51.916;4.574;2022-09-09T06:01:50;7.25;;;1.27;;
61505;SDS011;47366;51.916;4.574;2022-09-09T06:04:17;6.00;;;1.40;;
61505;SDS011;47366;51.916;4.574;2022-09-09T06:06:47;2.78;;;1.25;;
61505;SDS011;47366;51.916;4.574;2022-09-09T06:09:13;5.03;;;1.23;;
61505;SDS011;47366;51.916;4.574;2022-09-09T06:11:41;6.90;;;1.08;;
61505;SDS011;47366;51.916;4.574;2022-09-09T06:14:07;1.45;;;0.88;;
61505;SDS011;47366;51.916;4.574;2022-09-09T06:16:33;2.42;;;0.88;;
61505;SDS011;47366;51.916;4.574;2022-09-09T06:19:00;6.35;;;2.03;;
61505;SDS011;47366;51.916;4.574;2022-09-09T06:21:30;4.22;;;1.08;;
61505;SDS011;47366;51.916;4.574;2022-09-09T06:23:57;6.25;;;1.42;;
61505;SDS011;47366;51.916;4.574;2022-09-09T06:26:24;7.00;;;1.30;;
61505;SDS011;47366;51.916;4.574;2022-09-09T06:28:51;2.45;;;0.93;;
61505;SDS011;47366;51.916;4.574;2022-09-09T06:31:18;1.83;;;1.05;;
61505;SDS011;47366;51.916;4.574;2022-09-09T06:34:07;3.45;;;1.17;;
61505;SDS011;47366;51.916;4.574;2022-09-09T06:36:34;4.32;;;1.15;;
61505;SDS011;47366;51.916;4.574;2022-09-09T06:39:01;2.70;;;1.23;;
61505;SDS011;47366;51.916;4.574;2022-09-09T06:41:28;2.08;;;1.27;;
61505;SDS011;47366;51.916;4.574;2022-09-09T06:43:55;2.17;;;1.38;;
61505;SDS011;47366;51.916;4.574;2022-09-09T06:46:21;4.18;;;1.20;;
61505;SDS011;47366;51.916;4.574;2022-09-09T06:48:48;3.47;;;1.63;;
61505;SDS011;47366;51.916;4.574;2022-09-09T06:51:15;6.60;;;1.50;;
61505;SDS011;47366;51.916;4.574;2022-09-09T06:53:46;5.10;;;1.42;;
61505;SDS011;47366;51.916;4.574;2022-09-09T06:59:00;2.65;;;1.58;;
61505;SDS011;47366;51.916;4.574;2022-09-09T07:01:30;6.13;;;1.85;;
61505;SDS011;47366;51.916;4.574;2022-09-09T07:03:57;5.35;;;1.55;;
61505;SDS011;47366;51.916;4.574;2022-09-09T07:06:31;2.83;;;1.55;;
61505;SDS011;47366;51.916;4.574;2022-09-09T07:09:00;3.60;;;1.73;;
61505;SDS011;47366;51.916;4.574;2022-09-09T07:11:30;6.57;;;1.65;;
61505;SDS011;47366;51.916;4.574;2022-09-09T07:13:58;2.72;;;1.33;;
61505;SDS011;47366;51.916;4.574;2022-09-09T07:16:24;6.22;;;1.45;;
61505;SDS011;47366;51.916;4.574;2022-09-09T07:18:51;2.38;;;1.35;;
61505;SDS011;47366;51.916;4.574;2022-09-09T07:21:17;6.97;;;2.15;;
61505;SDS011;47366;51.916;4.574;2022-09-09T07:23:48;5.43;;;2.15;;
61505;SDS011;47366;51.916;4.574;2022-09-09T07:26:15;6.40;;;1.88;;
61505;SDS011;47366;51.916;4.574;2022-09-09T07:28:44;5.03;;;2.15;;
61505;SDS011;47366;51.916;4.574;2022-09-09T07:31:14;3.03;;;1.80;;
61505;SDS011;47366;51.916;4.574;2022-09-09T07:33:44;3.75;;;1.77;;
61505;SDS011;47366;51.916;4.574;2022-09-09T07:36:12;2.75;;;1.70;;
61505;SDS011;47366;51.916;4.574;2022-09-09T07:38:46;9.10;;;2.63;;
61505;SDS011;47366;51.916;4.574;2022-09-09T07:44:15;3.42;;;1.70;;
61505;SDS011;47366;51.916;4.574;2022-09-09T07:46:48;4.25;;;1.35;;
61505;SDS011;47366;51.916;4.574;2022-09-09T07:49:14;3.72;;;1.48;;
61505;SDS011;47366;51.916;4.574;2022-09-09T07:51:41;4.55;;;1.85;;
61505;SDS011;47366;51.916;4.574;2022-09-09T07:54:10;8.60;;;1.95;;
61505;SDS011;47366;51.916;4.574;2022-09-09T07:56:37;3.42;;;1.55;;
61505;SDS011;47366;51.916;4.574;2022-09-09T07:59:04;3.63;;;1.70;;
61505;SDS011;47366;51.916;4.574;2022-09-09T08:01:32;9.18;;;2.03;;
61505;SDS011;47366;51.916;4.574;2022-09-09T08:04:04;3.63;;;1.80;;
61505;SDS011;47366;51.916;4.574;2022-09-09T08:06:40;10.27;;;2.20;;
61505;SDS011;47366;51.916;4.574;2022-09-09T08:09:07;7.35;;;2.47;;
61505;SDS011;47366;51.916;4.574;2022-09-09T08:11:34;4.15;;;2.10;;
61505;SDS011;47366;51.916;4.574;2022-09-09T08:14:01;3.65;;;1.70;;
61505;SDS011;47366;51.916;4.574;2022-09-09T08:16:27;3.40;;;1.75;;
61505;SDS011;47366;51.916;4.574;2022-09-09T08:18:55;7.05;;;2.55;;
61505;SDS011;47366;51.916;4.574;2022-09-09T08:21:22;2.58;;;1.70;;
61505;SDS011;47366;51.916;4.574;2022-09-09T08:23:53;3.83;;;2.20;;
61505;SDS011;47366;51.916;4.574;2022-09-09T08:26:20;7.65;;;2.88;;
61505;SDS011;47366;51.916;4.574;2022-09-09T08:28:49;5.25;;;2.03;;
61505;SDS011;47366;51.916;4.574;2022-09-09T08:31:18;4.20;;;1.88;;
61505;SDS011;47366;51.916;4.574;2022-09-09T08:33:50;4.05;;;2.03;;
61505;SDS011;47366;51.916;4.574;2022-09-09T08:36:17;5.68;;;1.83;;
61505;SDS011;47366;51.916;4.574;2022-09-09T08:38:47;4.22;;;1.98;;
61505;SDS011;47366;51.916;4.574;2022-09-09T08:49:29;4.80;;;1.88;;
61505;SDS011;47366;51.916;4.574;2022-09-09T08:52:25;4.68;;;1.70;;
61505;SDS011;47366;51.916;4.574;2022-09-09T08:54:56;6.22;;;2.10;;
61505;SDS011;47366;51.916;4.574;2022-09-09T08:57:28;2.65;;;1.83;;
61505;SDS011;47366;51.916;4.574;2022-09-09T08:59:56;3.70;;;1.95;;
61505;SDS011;47366;51.916;4.574;2022-09-09T09:05:19;8.15;;;2.05;;
61505;SDS011;47366;51.916;4.574;2022-09-09T09:07:59;6.28;;;2.30;;
61505;SDS011;47366;51.916;4.574;2022-09-09T09:10:51;6.47;;;2.35;;
61505;SDS011;47366;51.916;4.574;2022-09-09T09:19:00;6.18;;;2.10;;
61505;SDS011;47366;51.916;4.574;2022-09-09T09:32:32;2.75;;;1.65;;
61505;SDS011;47366;51.916;4.574;2022-09-09T09:34:59;3.20;;;1.50;;
61505;SDS011;47366;51.916;4.574;2022-09-09T09:37:32;6.95;;;1.75;;
61505;SDS011;47366;51.916;4.574;2022-09-09T09:40:16;9.52;;;2.35;;
61505;SDS011;47366;51.916;4.574;2022-09-09T09:48:03;7.80;;;2.03;;
61505;SDS011;47366;51.916;4.574;2022-09-09T09:50:34;6.97;;;2.38;;
61505;SDS011;47366;51.916;4.574;2022-09-09T09:53:01;3.60;;;1.65;;
61505;SDS011;47366;51.916;4.574;2022-09-09T09:55:32;2.35;;;1.55;;
61505;SDS011;47366;51.916;4.574;2022-09-09T09:58:13;5.53;;;1.88;;
61505;SDS011;47366;51.916;4.574;2022-09-09T10:00:50;4.53;;;1.98;;
61505;SDS011;47366;51.916;4.574;2022-09-09T10:03:23;7.85;;;2.45;;
61505;SDS011;47366;51.916;4.574;2022-09-09T10:05:51;13.52;;;2.47;;
61505;SDS011;47366;51.916;4.574;2022-09-09T10:08:17;3.67;;;2.00;;
61505;SDS011;47366;51.916;4.574;2022-09-09T10:13:18;6.88;;;1.92;;
61505;SDS011;47366;51.916;4.574;2022-09-09T10:15:59;8.60;;;2.70;;
61505;SDS011;47366;51.916;4.574;2022-09-09T10:18:52;4.50;;;1.77;;
61505;SDS011;47366;51.916;4.574;2022-09-09T10:35:53;7.57;;;1.88;;
61505;SDS011;47366;51.916;4.574;2022-09-09T10:39:03;9.05;;;2.30;;
61505;SDS011;47366;51.916;4.574;2022-09-09T10:44:05;9.00;;;3.50;;
61505;SDS011;47366;51.916;4.574;2022-09-09T10:46:48;8.65;;;3.35;;
61505;SDS011;47366;51.916;4.574;2022-09-09T10:52:30;7.55;;;2.85;;
61505;SDS011;47366;51.916;4.574;2022-09-09T10:55:16;7.53;;;2.55;;
61505;SDS011;47366;51.916;4.574;2022-09-09T10:57:44;7.38;;;2.95;;
61505;SDS011;47366;51.916;4.574;2022-09-09T11:00:22;8.63;;;2.75;;
61505;SDS011;47366;51.916;4.574;2022-09-09T11:02:51;8.60;;;2.95;;
61505;SDS011;47366;51.916;4.574;2022-09-09T11:05:26;5.53;;;2.13;;
61505;SDS011;47366;51.916;4.574;2022-09-09T11:07:56;6.93;;;2.28;;
61505;SDS011;47366;51.916;4.574;2022-09-09T11:10:29;4.68;;;2.00;;
61505;SDS011;47366;51.916;4.574;2022-09-09T11:16:42;4.88;;;2.22;;
61505;SDS011;47366;51.916;4.574;2022-09-09T11:18:48;7.07;;;2.00;;
61505;SDS011;47366;51.916;4.574;2022-09-09T11:21:17;3.67;;;2.05;;
61505;SDS011;47366;51.916;4.574;2022-09-09T11:23:50;4.50;;;2.00;;
61505;SDS011;47366;51.916;4.574;2022-09-09T11:26:25;11.50;;;2.40;;
61505;SDS011;47366;51.916;4.574;2022-09-09T11:29:08;5.40;;;2.20;;
61505;SDS011;47366;51.916;4.574;2022-09-09T11:38:18;8.20;;;2.28;;
61505;SDS011;47366;51.916;4.574;2022-09-09T11:40:59;5.32;;;3.10;;
61505;SDS011;47366;51.916;4.574;2022-09-09T11:46:43;4.88;;;2.20;;
61505;SDS011;47366;51.916;4.574;2022-09-09T11:49:28;10.20;;;2.45;;
61505;SDS011;47366;51.916;4.574;2022-09-09T11:52:13;9.00;;;2.35;;
61505;SDS011;47366;51.916;4.574;2022-09-09T11:54:47;10.25;;;2.63;;
61505;SDS011;47366;51.916;4.574;2022-09-09T11:57:33;5.82;;;2.88;;
61505;SDS011;47366;51.916;4.574;2022-09-09T12:00:00;7.93;;;2.30;;
61505;SDS011;47366;51.916;4.574;2022-09-09T12:02:28;6.30;;;2.53;;
61505;SDS011;47366;51.916;4.574;2022-09-09T12:07:41;4.55;;;1.90;;
61505;SDS011;47366;51.916;4.574;2022-09-09T12:13:17;5.63;;;2.67;;
61505;SDS011;47366;51.916;4.574;2022-09-09T12:15:48;9.05;;;2.15;;
61505;SDS011;47366;51.916;4.574;2022-09-09T12:18:16;8.32;;;2.17;;
61505;SDS011;47366;51.916;4.574;2022-09-09T12:20:57;5.43;;;2.60;;
61505;SDS011;47366;51.916;4.574;2022-09-09T12:28:53;4.78;;;2.38;;
61505;SDS011;47366;51.916;4.574;2022-09-09T12:36:55;2.85;;;1.83;;
61505;SDS011;47366;51.916;4.574;2022-09-09T12:39:29;5.47;;;1.95;;
61505;SDS011;47366;51.916;4.574;2022-09-09T12:42:00;13.07;;;4.28;;
61505;SDS011;47366;51.916;4.574;2022-09-09T12:44:26;7.47;;;4.13;;
61505;SDS011;47366;51.916;4.574;2022-09-09T12:46:55;8.75;;;3.30;;
61505;SDS011;47366;51.916;4.574;2022-09-09T12:49:35;8.77;;;2.85;;
61505;SDS011;47366;51.916;4.574;2022-09-09T12:52:07;8.48;;;2.47;;
61505;SDS011;47366;51.916;4.574;2022-09-09T12:54:42;9.75;;;2.33;;
61505;SDS011;47366;51.916;4.574;2022-09-09T12:57:11;4.03;;;2.25;;
61505;SDS011;47366;51.916;4.574;2022-09-09T12:59:38;5.80;;;2.65;;
61505;SDS011;47366;51.916;4.574;2022-09-09T13:02:23;6.78;;;2.85;;
61505;SDS011;47366;51.916;4.574;2022-09-09T13:04:51;11.65;;;2.67;;
61505;SDS011;47366;51.916;4.574;2022-09-09T13:07:18;9.52;;;2.85;;
61505;SDS011;47366;51.916;4.574;2022-09-09T13:09:45;4.30;;;2.33;;
61505;SDS011;47366;51.916;4.574;2022-09-09T13:12:16;5.90;;;1.88;;
61505;SDS011;47366;51.916;4.574;2022-09-09T13:14:48;6.10;;;1.98;;
61505;SDS011;47366;51.916;4.574;2022-09-09T13:17:26;4.25;;;1.63;;
61505;SDS011;47366;51.916;4.574;2022-09-09T13:19:54;3.53;;;1.73;;
61505;SDS011;47366;51.916;4.574;2022-09-09T13:22:36;4.97;;;2.33;;
61505;SDS011;47366;51.916;4.574;2022-09-09T13:30:21;3.63;;;2.13;;
61505;SDS011;47366;51.916;4.574;2022-09-09T13:35:34;11.05;;;2.05;;
61505;SDS011;47366;51.916;4.574;2022-09-09T13:38:09;4.78;;;1.83;;
61505;SDS011;47366;51.916;4.574;2022-09-09T13:40:35;7.57;;;1.75;;
61505;SDS011;47366;51.916;4.574;2022-09-09T13:43:01;7.95;;;2.40;;
61505;SDS011;47366;51.916;4.574;2022-09-09T13:45:28;3.78;;;1.90;;
61505;SDS011;47366;51.916;4.574;2022-09-09T13:47:54;4.97;;;1.95;;
61505;SDS011;47366;51.916;4.574;2022-09-09T13:52:54;5.80;;;1.98;;
61505;SDS011;47366;51.916;4.574;2022-09-09T13:55:23;3.58;;;1.52;;
61505;SDS011;47366;51.916;4.574;2022-09-09T13:57:54;8.50;;;1.88;;
61505;SDS011;47366;51.916;4.574;2022-09-09T14:00:31;6.85;;;2.05;;
61505;SDS011;47366;51.916;4.574;2022-09-09T14:02:58;4.68;;;1.73;;
61505;SDS011;47366;51.916;4.574;2022-09-09T14:05:26;5.53;;;1.63;;
61505;SDS011;47366;51.916;4.574;2022-09-09T14:07:52;4.25;;;1.75;;
61505;SDS011;47366;51.916;4.574;2022-09-09T14:10:18;4.68;;;1.42;;
61505;SDS011;47366;51.916;4.574;2022-09-09T14:12:43;2.33;;;1.33;;
61505;SDS011;47366;51.916;4.574;2022-09-09T14:15:09;3.75;;;1.80;;
61505;SDS011;47366;51.916;4.574;2022-09-09T14:17:45;5.68;;;1.90;;
61505;SDS011;47366;51.916;4.574;2022-09-09T14:20:11;4.38;;;1.65;;
61505;SDS011;47366;51.916;4.574;2022-09-09T14:22:37;7.05;;;1.98;;
61505;SDS011;47366;51.916;4.574;2022-09-09T14:25:04;7.82;;;2.20;;
61505;SDS011;47366;51.916;4.574;2022-09-09T14:27:30;8.40;;;1.90;;
61505;SDS011;47366;51.916;4.574;2022-09-09T14:29:55;10.88;;;2.72;;
61505;SDS011;47366;51.916;4.574;2022-09-09T14:32:22;2.75;;;1.50;;
61505;SDS011;47366;51.916;4.574;2022-09-09T14:34:47;7.35;;;2.10;;
61505;SDS011;47366;51.916;4.574;2022-09-09T14:37:15;5.45;;;1.60;;
61505;SDS011;47366;51.916;4.574;2022-09-09T14:39:43;3.38;;;1.42;;
61505;SDS011;47366;51.916;4.574;2022-09-09T14:42:13;3.08;;;1.33;;
61505;SDS011;47366;51.916;4.574;2022-09-09T14:44:39;7.88;;;1.75;;
61505;SDS011;47366;51.916;4.574;2022-09-09T14:47:05;4.35;;;1.60;;
61505;SDS011;47366;51.916;4.574;2022-09-09T14:49:33;6.82;;;1.77;;
61505;SDS011;47366;51.916;4.574;2022-09-09T14:51:59;3.15;;;1.77;;
61505;SDS011;47366;51.916;4.574;2022-09-09T14:54:24;4.72;;;1.27;;
61505;SDS011;47366;51.916;4.574;2022-09-09T14:56:50;6.10;;;1.35;;
61505;SDS011;47366;51.916;4.574;2022-09-09T14:59:16;4.43;;;1.42;;
61505;SDS011;47366;51.916;4.574;2022-09-09T15:01:41;3.22;;;1.33;;
61505;SDS011;47366;51.916;4.574;2022-09-09T15:04:06;6.68;;;1.40;;
61505;SDS011;47366;51.916;4.574;2022-09-09T15:06:33;4.57;;;1.80;;
61505;SDS011;47366;51.916;4.574;2022-09-09T15:09:01;4.82;;;1.77;;
61505;SDS011;47366;51.916;4.574;2022-09-09T15:11:28;2.70;;;1.27;;
61505;SDS011;47366;51.916;4.574;2022-09-09T15:13:55;2.03;;;1.30;;
61505;SDS011;47366;51.916;4.574;2022-09-09T15:16:22;2.50;;;1.40;;
61505;SDS011;47366;51.916;4.574;2022-09-09T15:18:53;6.03;;;1.45;;
61505;SDS011;47366;51.916;4.574;2022-09-09T15:21:22;8.80;;;1.60;;
61505;SDS011;47366;51.916;4.574;2022-09-09T15:23:50;3.95;;;1.67;;
61505;SDS011;47366;51.916;4.574;2022-09-09T15:26:16;5.15;;;2.17;;
61505;SDS011;47366;51.916;4.574;2022-09-09T15:28:42;4.93;;;2.15;;
61505;SDS011;47366;51.916;4.574;2022-09-09T15:31:19;6.03;;;2.22;;
61505;SDS011;47366;51.916;4.574;2022-09-09T15:33:47;7.78;;;2.17;;
61505;SDS011;47366;51.916;4.574;2022-09-09T15:36:15;4.43;;;2.22;;
61505;SDS011;47366;51.916;4.574;2022-09-09T15:38:43;7.63;;;2.88;;
61505;SDS011;47366;51.916;4.574;2022-09-09T15:41:09;9.60;;;2.65;;
61505;SDS011;47366;51.916;4.574;2022-09-09T15:43:34;7.15;;;3.00;;
61505;SDS011;47366;51.916;4.574;2022-09-09T15:46:02;16.77;;;4.25;;
61505;SDS011;47366;51.916;4.574;2022-09-09T15:48:49;9.50;;;3.45;;
61505;SDS011;47366;51.916;4.574;2022-09-09T15:51:15;6.07;;;3.72;;
61505;SDS011;47366;51.916;4.574;2022-09-09T15:53:41;38.88;;;14.10;;
61505;SDS011;47366;51.916;4.574;2022-09-09T15:56:06;37.20;;;22.23;;
61505;SDS011;47366;51.916;4.574;2022-09-09T15:58:33;8.88;;;4.55;;
61505;SDS011;47366;51.916;4.574;2022-09-09T16:01:10;13.27;;;3.80;;
61505;SDS011;47366;51.916;4.574;2022-09-09T16:03:38;7.18;;;3.35;;
61505;SDS011;47366;51.916;4.574;2022-09-09T16:06:11;34.05;;;9.18;;
61505;SDS011;47366;51.916;4.574;2022-09-09T16:08:38;7.40;;;3.42;;
61505;SDS011;47366;51.916;4.574;2022-09-09T16:11:06;7.63;;;2.25;;
61505;SDS011;47366;51.916;4.574;2022-09-09T16:13:34;7.63;;;2.70;;
61505;SDS011;47366;51.916;4.574;2022-09-09T16:16:01;7.20;;;2.90;;
61505;SDS011;47366;51.916;4.574;2022-09-09T16:21:49;5.75;;;2.85;;
61505;SDS011;47366;51.916;4.574;2022-09-09T16:24:16;7.15;;;3.20;;
61505;SDS011;47366;51.916;4.574;2022-09-09T16:26:45;6.82;;;2.63;;
61505;SDS011;47366;51.916;4.574;2022-09-09T16:29:13;6.75;;;2.70;;
61505;SDS011;47366;51.916;4.574;2022-09-09T16:31:39;14.40;;;3.40;;
61505;SDS011;47366;51.916;4.574;2022-09-09T16:34:06;9.80;;;2.28;;
61505;SDS011;47366;51.916;4.574;2022-09-09T16:36:32;6.68;;;2.67;;
61505;SDS011;47366;51.916;4.574;2022-09-09T16:39:01;14.25;;;3.38;;
61505;SDS011;47366;51.916;4.574;2022-09-09T16:41:30;18.60;;;4.60;;
61505;SDS011;47366;51.916;4.574;2022-09-09T16:44:07;17.20;;;3.92;;
61505;SDS011;47366;51.916;4.574;2022-09-09T16:46:56;11.23;;;4.13;;
61505;SDS011;47366;51.916;4.574;2022-09-09T16:49:21;13.90;;;4.90;;
61505;SDS011;47366;51.916;4.574;2022-09-09T16:51:48;7.88;;;3.55;;
61505;SDS011;47366;51.916;4.574;2022-09-09T16:54:15;17.23;;;4.60;;
61505;SDS011;47366;51.916;4.574;2022-09-09T16:56:42;8.20;;;3.70;;
61505;SDS011;47366;51.916;4.574;2022-09-09T16:59:10;8.20;;;4.25;;
61505;SDS011;47366;51.916;4.574;2022-09-09T17:01:40;17.95;;;5.25;;
61505;SDS011;47366;51.916;4.574;2022-09-09T17:04:09;8.07;;;3.67;;
61505;SDS011;47366;51.916;4.574;2022-09-09T17:06:41;16.23;;;4.38;;
61505;SDS011;47366;51.916;4.574;2022-09-09T17:09:07;6.97;;;3.05;;
61505;SDS011;47366;51.916;4.574;2022-09-09T17:11:35;11.98;;;4.07;;
61505;SDS011;47366;51.916;4.574;2022-09-09T17:14:02;6.55;;;3.30;;
61505;SDS011;47366;51.916;4.574;2022-09-09T17:16:29;8.77;;;3.42;;
61505;SDS011;47366;51.916;4.574;2022-09-09T17:18:56;9.95;;;3.28;;
61505;SDS011;47366;51.916;4.574;2022-09-09T17:21:24;6.38;;;2.92;;
61505;SDS011;47366;51.916;4.574;2022-09-09T17:23:51;9.25;;;3.28;;
61505;SDS011;47366;51.916;4.574;2022-09-09T17:26:18;5.47;;;2.75;;
61505;SDS011;47366;51.916;4.574;2022-09-09T17:28:46;9.57;;;3.75;;